Airfield :
LOGIN :

Register | Disclaimer

   EN    FR    IT 

 










Legend :    VFR   Marginal VFR   IFR   Intensive IFR   Very Intensive IFR
Visi :
Ceiling :
>= 8 km
>= 3000ft
5 to 8 km
1000 to 3000 ft
1500m to 5 km
500 to 1000 ft
800 to 1500m
200 to 500 ft
< 800m
< 200 ft
Symbols :   Thunderstorms  Fog  Heavy snow  Heavy precipitations  Wind > 20 kt
SIGMETs :     Misc.  Thunderstorms  Icing  Turbulence  Mountain Waves  Volcanic Ashes






- Airport Elevation : 465 ft
- IATA code : LEJ


EDDP - Leipzig Halle

CURRENT METAR :
  • 182120Z 22013KT 9999 FEW042 05/00 Q1019 NOSIG

EXPIRED METARs :
  • 182050Z 21013KT 9999 FEW042 05/01 Q1019 NOSIG
  • 182020Z 22012KT 9999 FEW040 05/01 Q1020 NOSIG
  • 181950Z 22011KT 9999 FEW045 05/02 Q1020 NOSIG
  • 181920Z 23012KT 9999 FEW035 BKN046 05/02 Q1020 NOSIG
  • 181850Z 22011KT 9999 FEW034 04/03 Q1020 NOSIG
  • 181820Z 25008KT 9999 -SHRA FEW010 FEW020CB 04/03 Q1021 NOSIG

TAF TAF EDDP
Valid from the 18 at 18:00 until the 19 at 18:00 UTC


181700Z 1818/1918 22013G23KT 9999 SCT045
BECMG 1906/1909 28015G25KT
PROB30
TEMPO 1909/1913 29020G35KT 3500 SHRAGS BKN015CB
BECMG 1913/1916 26012KT



MET'MAP, your aeronautical weather chart ! - Copyright ORBIFLY December 2007 - Disclaimer

ORBIFLY MET'MAP TEAM :

Programming & Development : Alexandra Zaïnal
Concept & original design : Baudouin d'Aumeries
Assistance for programming : Marc-Olivier Méhu
Technical & hardware support : Manuel Goepfert

Contact : metmap@orbifly.com




SOURCES & CREDITS :

   NOAA